Disclaimer

Please do not use the information listed here in-flight or in-navigation, as they are not provided to us by the airports but are provided by volunteers, so they might be outdated.

Search


Regions


Airport information page

Radio informations:
ACCRA TWR - 119.1 MHz
ACCRA GND - 121.9 MHz
ACCRA APP - 119.5 MHz

Airport informations:
Latitude: 05° 36' 18.67" N
Longitude: 000° 10' 00.43" W
Elevation: 205 feet - 62 meters
Operating hours: N/A
Operating agency: Military-civil joint use airport
Timezone: UTC 0
Fuel: Jet A1, without icing nhibitor.

100/130 MIL Spec, low lead, aviation gasoline (BLUE)

Runway information:
03/21 - 11165 x 200 feet< - >3403 x 61 meters

Recent METARs:
DGAA 130300Z 28006KT CAVOK 26/24 Q1009 NOSIG
DGAA 130400Z 28005KT CAVOK 26/24 Q1009 NOSIG
DGAA 130400Z 28005KT CAVOK 26/24 Q1009 NOSIG

Airport on the map: